Time;durP1;ratioP1;P1;durP2;ratioP2;P2;SDS_P1;SDS_P2;PMS_P1;PMS_P2;Temp;Humidity;BMP_temperature;BMP_pressure;BME280_temperature;BME280_humidity;BME280_pressure;Samples;Min_cycle;Max_cycle;Signal;HPM_P1;HPM_P2
2021/04/05 00:01:12;;;;;;;4.53;3.37;;;;;;;;;;5051563;28;20456;-67
2021/04/05 00:03:39;;;;;;;5.47;3.40;;;;;;;;;;5050764;28;20456;-68
2021/04/05 00:06:05;;;;;;;3.93;3.00;;;;;;;;;;5053029;28;20408;-68
2021/04/05 00:08:31;;;;;;;4.37;3.17;;;;;;;;;;5052363;28;20486;-68
2021/04/05 00:10:57;;;;;;;6.53;3.00;;;;;;;;;;5052988;28;20793;-68
2021/04/05 00:13:27;;;;;;;9.13;3.53;;;;;;;;;;5051947;28;20946;-68
2021/04/05 00:15:54;;;;;;;5.20;2.87;;;;;;;;;;5053022;28;20499;-68
2021/04/05 00:18:21;;;;;;;7.83;3.33;;;;;;;;;;5052240;28;20462;-68
2021/04/05 00:20:49;;;;;;;4.90;2.97;;;;;;;;;;5053000;28;20462;-68
2021/04/05 00:23:15;;;;;;;6.50;3.57;;;;;;;;;;5049922;28;20471;-68
2021/04/05 00:25:41;;;;;;;10.60;3.20;;;;;;;;;;5052722;28;20407;-68
2021/04/05 00:28:07;;;;;;;4.40;3.27;;;;;;;;;;5051953;28;20423;-68
2021/04/05 00:30:34;;;;;;;6.70;3.17;;;;;;;;;;5053328;28;20752;-68
2021/04/05 00:33:01;;;;;;;4.47;2.77;;;;;;;;;;5051181;28;20959;-68
2021/04/05 00:35:28;;;;;;;4.33;3.17;;;;;;;;;;5052875;28;20407;-68
2021/04/05 00:37:55;;;;;;;5.10;3.40;;;;;;;;;;5051945;28;20423;-68
2021/04/05 00:40:24;;;;;;;7.87;3.40;;;;;;;;;;5052856;28;20404;-68
2021/04/05 00:42:50;;;;;;;3.67;3.27;;;;;;;;;;5052982;28;20429;-68
2021/04/05 00:45:17;;;;;;;5.73;3.33;;;;;;;;;;5056826;28;20807;-68
2021/04/05 00:47:48;;;;;;;7.83;3.13;;;;;;;;;;5056081;28;20503;-68
2021/04/05 00:50:15;;;;;;;5.87;2.67;;;;;;;;;;5056934;28;20401;-68
2021/04/05 00:52:42;;;;;;;4.57;2.80;;;;;;;;;;5055511;28;20427;-68
2021/04/05 00:55:08;;;;;;;7.73;2.53;;;;;;;;;;5056657;28;20414;-68
2021/04/05 00:57:35;;;;;;;5.17;3.20;;;;;;;;;;5055431;28;20446;-68
2021/04/05 01:00:01;;;;;;;5.83;2.90;;;;;;;;;;5056641;28;20407;-68
2021/04/05 01:02:27;;;;;;;6.00;3.50;;;;;;;;;;5055941;28;20536;-68
2021/04/05 01:04:54;;;;;;;4.87;3.07;;;;;;;;;;5056435;28;20422;-68
2021/04/05 01:07:20;;;;;;;7.20;3.50;;;;;;;;;;5053131;28;20946;-68
2021/04/05 01:09:46;;;;;;;7.57;3.90;;;;;;;;;;5056052;28;20403;-68
2021/04/05 01:12:12;;;;;;;4.30;2.80;;;;;;;;;;5056110;28;20410;-68
2021/04/05 01:14:38;;;;;;;6.47;3.53;;;;;;;;;;5055566;28;20440;-68
2021/04/05 01:17:04;;;;;;;6.73;3.20;;;;;;;;;;5056468;28;20945;-68
2021/04/05 01:19:30;;;;;;;4.83;2.23;;;;;;;;;;5055356;28;20958;-68
2021/04/05 01:21:56;;;;;;;4.73;3.30;;;;;;;;;;5055848;28;20453;-68
2021/04/05 01:24:23;;;;;;;4.03;2.90;;;;;;;;;;5055032;28;20477;-68
2021/04/05 01:26:48;;;;;;;4.47;3.03;;;;;;;;;;5056085;28;20422;-68
2021/04/05 01:29:15;;;;;;;7.30;3.60;;;;;;;;;;5054332;28;20437;-69
2021/04/05 01:31:41;;;;;;;5.93;2.93;;;;;;;;;;5056448;28;20413;-68
2021/04/05 01:34:07;;;;;;;3.90;3.13;;;;;;;;;;5055109;28;20488;-68
2021/04/05 01:36:33;;;;;;;4.23;3.10;;;;;;;;;;5056056;28;20548;-68
2021/04/05 01:38:59;;;;;;;7.37;3.03;;;;;;;;;;5055128;28;20429;-68
2021/04/05 01:41:26;;;;;;;6.43;3.43;;;;;;;;;;5055521;28;20457;-68
2021/04/05 01:43:52;;;;;;;6.10;3.20;;;;;;;;;;5055186;28;20449;-68
2021/04/05 01:46:19;;;;;;;7.87;3.13;;;;;;;;;;5055995;28;20923;-68
2021/04/05 01:48:46;;;;;;;5.60;2.97;;;;;;;;;;5055065;28;20873;-68
2021/04/05 01:51:12;;;;;;;4.67;2.60;;;;;;;;;;5055557;28;20405;-68
2021/04/05 01:53:38;;;;;;;4.90;2.80;;;;;;;;;;5054397;28;20472;-68
2021/04/05 01:56:05;;;;;;;5.70;2.70;;;;;;;;;;5053918;28;20431;-68
2021/04/05 01:58:32;;;;;;;6.03;3.20;;;;;;;;;;5054781;28;20561;-68
2021/04/05 02:00:58;;;;;;;5.20;3.20;;;;;;;;;;5055905;28;20441;-68
2021/04/05 02:03:28;;;;;;;4.20;2.80;;;;;;;;;;5053721;28;20446;-68
2021/04/05 02:06:01;;;;;;;7.50;3.27;;;;;;;;;;5055419;28;20471;-68
2021/04/05 02:08:28;;;;;;;6.40;3.20;;;;;;;;;;5054434;28;20425;-68
2021/04/05 02:10:56;;;;;;;5.93;3.10;;;;;;;;;;5055531;28;20399;-68
2021/04/05 02:13:22;;;;;;;4.27;2.83;;;;;;;;;;5054305;28;20425;-68
2021/04/05 02:15:49;;;;;;;8.80;3.30;;;;;;;;;;5055413;28;20403;-68
2021/04/05 02:18:16;;;;;;;5.63;3.40;;;;;;;;;;5054504;28;20419;-68
2021/04/05 02:20:43;;;;;;;7.50;3.80;;;;;;;;;;5054915;28;20416;-68
2021/04/05 02:23:09;;;;;;;4.97;3.23;;;;;;;;;;5055517;28;20437;-68
2021/04/05 02:25:35;;;;;;;5.77;2.93;;;;;;;;;;5055032;28;20813;-68
2021/04/05 02:28:04;;;;;;;3.30;2.67;;;;;;;;;;5055164;28;20429;-68
2021/04/05 02:30:31;;;;;;;4.50;3.20;;;;;;;;;;5053862;28;20958;-68
2021/04/05 02:33:02;;;;;;;4.00;2.87;;;;;;;;;;5055111;28;20423;-68
2021/04/05 02:35:29;;;;;;;4.03;2.70;;;;;;;;;;5053929;28;20431;-68
2021/04/05 02:37:57;;;;;;;3.10;2.33;;;;;;;;;;5054786;28;20817;-68
2021/04/05 02:40:23;;;;;;;7.70;3.23;;;;;;;;;;5053700;28;20453;-68
2021/04/05 02:42:50;;;;;;;3.77;2.40;;;;;;;;;;5054587;28;20964;-68
2021/04/05 02:45:17;;;;;;;4.70;2.87;;;;;;;;;;5052924;28;20431;-68
2021/04/05 02:47:44;;;;;;;7.73;2.90;;;;;;;;;;5054864;28;20409;-68
2021/04/05 02:50:10;;;;;;;7.43;2.90;;;;;;;;;;5054125;28;20778;-68
2021/04/05 02:52:37;;;;;;;3.73;2.63;;;;;;;;;;5054959;28;20403;-67
2021/04/05 02:55:04;;;;;;;3.80;2.60;;;;;;;;;;5053692;28;20437;-67
2021/04/05 02:57:33;;;;;;;5.37;3.00;;;;;;;;;;5054657;28;20427;-67
2021/04/05 02:59:59;;;;;;;5.13;2.83;;;;;;;;;;5050811;28;20545;-67
2021/04/05 03:02:25;;;;;;;7.13;2.47;;;;;;;;;;5053400;28;20448;-68
2021/04/05 03:04:52;;;;;;;5.13;2.63;;;;;;;;;;5052551;28;20446;-68
2021/04/05 03:07:18;;;;;;;8.23;2.83;;;;;;;;;;5054375;28;20408;-68
2021/04/05 03:09:44;;;;;;;5.70;2.33;;;;;;;;;;5053483;28;20433;-68
2021/04/05 03:12:10;;;;;;;4.50;3.17;;;;;;;;;;5054377;28;20428;-68
2021/04/05 03:14:36;;;;;;;6.87;3.90;;;;;;;;;;5053125;28;20538;-67
2021/04/05 03:17:03;;;;;;;4.87;2.97;;;;;;;;;;5054137;28;20409;-67
2021/04/05 03:19:30;;;;;;;6.20;3.03;;;;;;;;;;5053043;28;20507;-67
2021/04/05 03:21:56;;;;;;;4.33;2.57;;;;;;;;;;5054146;28;20472;-67
2021/04/05 03:24:22;;;;;;;3.23;2.37;;;;;;;;;;5052843;28;20453;-68
2021/04/05 03:26:48;;;;;;;6.83;2.80;;;;;;;;;;5053900;28;20883;-67
2021/04/05 03:29:16;;;;;;;5.20;2.93;;;;;;;;;;5053164;28;20835;-67
2021/04/05 03:31:42;;;;;;;6.10;2.93;;;;;;;;;;5053915;28;20434;-67
2021/04/05 03:34:20;;;;;;;6.63;2.80;;;;;;;;;;5053030;28;20457;-68
2021/04/05 03:36:54;;;;;;;3.67;2.33;;;;;;;;;;5052434;28;20421;-67
2021/04/05 03:39:21;;;;;;;3.43;2.40;;;;;;;;;;5053422;28;20923;-68
2021/04/05 03:41:47;;;;;;;4.60;2.57;;;;;;;;;;5053756;28;20442;-67
2021/04/05 03:44:37;;;;;;;4.47;2.83;;;;;;;;;;5052544;28;20865;-67
2021/04/05 03:47:08;;;;;;;4.83;2.93;;;;;;;;;;5054285;28;20386;-67
2021/04/05 03:49:36;;;;;;;5.20;2.40;;;;;;;;;;5053064;28;20425;-67
2021/04/05 03:52:05;;;;;;;8.83;3.00;;;;;;;;;;5053853;28;20413;-67
2021/04/05 03:54:39;;;;;;;4.50;2.63;;;;;;;;;;5053048;28;20966;-67
2021/04/05 03:57:06;;;;;;;4.10;2.77;;;;;;;;;;5053890;28;20446;-67
2021/04/05 03:59:37;;;;;;;6.03;2.53;;;;;;;;;;5052125;28;20466;-68
2021/04/05 04:02:05;;;;;;;7.60;2.57;;;;;;;;;;5053652;28;20478;-67
2021/04/05 04:05:16;;;;;;;3.40;2.40;;;;;;;;;;5051734;28;20949;-68
2021/04/05 04:07:28;;;;;;;4.43;2.47;;;;;;;;;;5045038;28;20424;-67
2021/04/05 04:09:56;;;;;;;3.77;2.33;;;;;;;;;;5050895;28;20442;-68
2021/04/05 04:12:22;;;;;;;6.43;2.73;;;;;;;;;;5052119;28;20426;-68
2021/04/05 04:14:50;;;;;;;3.60;2.30;;;;;;;;;;5052463;28;20435;-67
2021/04/05 04:17:16;;;;;;;8.83;2.80;;;;;;;;;;5053414;28;20435;-68
2021/04/05 04:19:42;;;;;;;5.33;2.60;;;;;;;;;;5052250;28;20428;-67
2021/04/05 04:22:09;;;;;;;5.70;2.60;;;;;;;;;;5053118;28;20473;-67
2021/04/05 04:24:35;;;;;;;3.57;2.53;;;;;;;;;;5052166;28;20816;-68
2021/04/05 04:27:01;;;;;;;2.90;2.30;;;;;;;;;;5052986;28;20400;-67
2021/04/05 04:29:29;;;;;;;4.50;3.23;;;;;;;;;;5051606;28;20469;-68
2021/04/05 04:31:55;;;;;;;5.07;2.50;;;;;;;;;;5052929;28;20502;-67
2021/04/05 04:34:22;;;;;;;4.67;2.07;;;;;;;;;;5052350;28;20829;-68
2021/04/05 04:36:48;;;;;;;3.37;2.37;;;;;;;;;;5053227;28;20402;-68
2021/04/05 04:39:15;;;;;;;5.07;2.97;;;;;;;;;;5051897;28;20403;-68
2021/04/05 04:41:46;;;;;;;4.63;3.03;;;;;;;;;;5052648;28;20442;-68
2021/04/05 04:44:12;;;;;;;3.83;2.20;;;;;;;;;;5033289;28;20479;-68
2021/04/05 04:46:39;;;;;;;4.83;2.80;;;;;;;;;;5053144;28;20395;-68
2021/04/05 04:49:06;;;;;;;6.80;2.30;;;;;;;;;;5053134;28;20403;-67
2021/04/05 04:51:33;;;;;;;8.83;2.80;;;;;;;;;;5052336;28;20430;-67
2021/04/05 04:54:00;;;;;;;3.23;2.40;;;;;;;;;;5058119;23;20491;-70
2021/04/05 04:56:27;;;;;;;3.90;2.80;;;;;;;;;;5011639;28;20457;-69
2021/04/05 04:58:58;;;;;;;5.30;2.57;;;;;;;;;;5012727;28;20397;-70
2021/04/05 05:01:25;;;;;;;4.50;2.10;;;;;;;;;;5009992;28;20810;-69
2021/04/05 05:03:52;;;;;;;4.77;2.50;;;;;;;;;;5012368;28;20422;-70
2021/04/05 05:06:20;;;;;;;4.30;2.70;;;;;;;;;;5011389;28;20429;-69
2021/04/05 05:08:46;;;;;;;4.27;2.60;;;;;;;;;;5011685;28;20915;-69
2021/04/05 05:11:13;;;;;;;3.03;2.37;;;;;;;;;;5011562;28;20934;-69
2021/04/05 05:13:39;;;;;;;2.93;2.10;;;;;;;;;;5012446;28;20427;-70
2021/04/05 05:16:06;;;;;;;5.37;2.17;;;;;;;;;;5010697;28;20430;-69
2021/04/05 05:18:33;;;;;;;3.80;2.10;;;;;;;;;;5011286;28;20793;-69
2021/04/05 05:21:00;;;;;;;4.17;2.90;;;;;;;;;;5011491;28;20555;-70
2021/04/05 05:23:27;;;;;;;5.10;2.50;;;;;;;;;;5012312;28;20435;-70
2021/04/05 05:25:53;;;;;;;4.57;2.70;;;;;;;;;;5011837;28;20504;-70
2021/04/05 05:28:20;;;;;;;3.93;2.10;;;;;;;;;;5012861;28;20483;-70
2021/04/05 05:30:48;;;;;;;5.70;3.00;;;;;;;;;;5015227;28;20455;-70
2021/04/05 05:33:15;;;;;;;13.60;2.77;;;;;;;;;;5015946;28;20460;-70
2021/04/05 05:35:41;;;;;;;3.53;2.77;;;;;;;;;;5015216;28;20764;-70
2021/04/05 05:38:08;;;;;;;3.77;2.73;;;;;;;;;;5010971;28;20424;-69
2021/04/05 05:40:35;;;;;;;5.37;2.40;;;;;;;;;;5009170;28;20428;-68
2021/04/05 05:43:20;;;;;;;4.67;3.00;;;;;;;;;;5012273;28;20436;-72
2021/04/05 05:46:03;;;;;;;9.23;2.50;;;;;;;;;;5003253;28;20470;-71
2021/04/05 05:48:34;;;;;;;5.33;2.30;;;;;;;;;;5009851;28;20445;-67
2021/04/05 05:51:19;;;;;;;7.40;1.93;;;;;;;;;;5013522;28;20979;-67
2021/04/05 05:54:04;;;;;;;3.97;2.40;;;;;;;;;;4995425;28;20444;-69
2021/04/05 05:56:33;;;;;;;3.77;2.70;;;;;;;;;;5011097;28;20790;-69
2021/04/05 05:59:25;;;;;;;5.33;2.67;;;;;;;;;;5015346;28;20881;-70
2021/04/05 06:01:51;;;;;;;5.10;2.37;;;;;;;;;;4981754;28;20471;-69
2021/04/05 06:04:17;;;;;;;3.73;2.57;;;;;;;;;;5003634;28;20451;-69
2021/04/05 06:07:10;;;;;;;6.50;2.40;;;;;;;;;;5014774;28;20442;-68
2021/04/05 06:09:39;;;;;;;5.77;2.33;;;;;;;;;;5003259;28;20753;-69
2021/04/05 06:12:12;;;;;;;7.73;2.17;;;;;;;;;;4999711;28;20831;-69
2021/04/05 06:14:50;;;;;;;3.77;2.57;;;;;;;;;;5011309;28;20445;-70
2021/04/05 06:17:30;;;;;;;5.90;2.43;;;;;;;;;;4996219;28;20531;-69
2021/04/05 06:20:03;;;;;;;5.00;2.60;;;;;;;;;;5009167;28;20447;-71
2021/04/05 06:22:44;;;;;;;6.30;2.40;;;;;;;;;;4999413;28;20452;-69
2021/04/05 06:25:10;;;;;;;7.33;2.73;;;;;;;;;;5007711;28;20451;-69
2021/04/05 06:27:51;;;;;;;3.90;2.23;;;;;;;;;;5013855;28;20408;-69
2021/04/05 06:30:27;;;;;;;6.93;2.50;;;;;;;;;;5010169;28;20438;-69
2021/04/05 06:33:05;;;;;;;11.43;3.00;;;;;;;;;;5005190;28;20905;-69
2021/04/05 06:35:54;;;;;;;5.53;2.40;;;;;;;;;;5001010;28;20452;-69
2021/04/05 06:38:22;;;;;;;4.00;2.40;;;;;;;;;;5002217;28;20493;-69
2021/04/05 06:40:48;;;;;;;4.90;2.10;;;;;;;;;;4996138;28;20442;-69
2021/04/05 06:43:33;;;;;;;4.77;2.97;;;;;;;;;;5010012;28;20456;-69
2021/04/05 06:46:02;;;;;;;4.60;2.23;;;;;;;;;;5010798;28;20925;-69
2021/04/05 06:48:47;;;;;;;4.70;2.70;;;;;;;;;;5014435;28;20398;-69
2021/04/05 06:51:13;;;;;;;4.60;2.47;;;;;;;;;;5013485;28;20425;-70
2021/04/05 06:53:41;;;;;;;4.30;2.30;;;;;;;;;;5014273;28;20455;-69
2021/04/05 06:56:11;;;;;;;4.87;2.83;;;;;;;;;;5013547;28;20528;-69
2021/04/05 06:59:01;;;;;;;4.73;2.80;;;;;;;;;;5012139;28;20512;-69
2021/04/05 07:01:50;;;;;;;4.00;3.07;;;;;;;;;;5012283;28;20859;-69
2021/04/05 07:04:35;;;;;;;6.10;4.27;;;;;;;;;;5014307;28;20891;-69
2021/04/05 07:07:06;;;;;;;6.43;2.87;;;;;;;;;;5013130;28;20517;-69
2021/04/05 07:09:42;;;;;;;6.77;3.00;;;;;;;;;;5013998;28;20501;-68
2021/04/05 07:12:27;;;;;;;4.20;2.57;;;;;;;;;;5013096;28;20516;-68
2021/04/05 07:15:12;;;;;;;4.33;3.40;;;;;;;;;;5013905;28;20425;-69
2021/04/05 07:17:56;;;;;;;6.53;2.90;;;;;;;;;;5012760;28;20429;-69
2021/04/05 07:20:28;;;;;;;6.43;2.90;;;;;;;;;;5013703;28;20989;-69
2021/04/05 07:22:57;;;;;;;5.83;2.87;;;;;;;;;;5013275;28;20592;-69
2021/04/05 07:25:28;;;;;;;5.73;2.90;;;;;;;;;;5012738;28;20433;-69
2021/04/05 07:28:02;;;;;;;3.30;2.27;;;;;;;;;;5013481;28;20419;-69
2021/04/05 07:30:31;;;;;;;3.83;3.10;;;;;;;;;;5013599;28;20386;-69
2021/04/05 07:33:16;;;;;;;6.60;2.70;;;;;;;;;;5012879;28;20426;-69
2021/04/05 07:35:51;;;;;;;4.33;2.80;;;;;;;;;;5012714;28;20414;-68
2021/04/05 07:38:47;;;;;;;4.47;2.37;;;;;;;;;;5013896;28;20450;-68
2021/04/05 07:41:25;;;;;;;5.07;2.90;;;;;;;;;;4976566;28;20468;-68
2021/04/05 07:43:57;;;;;;;4.27;2.60;;;;;;;;;;5014093;28;20500;-68
2021/04/05 07:46:30;;;;;;;5.17;3.33;;;;;;;;;;5012856;28;20859;-68
2021/04/05 07:49:08;;;;;;;6.73;2.80;;;;;;;;;;5012812;28;20394;-68
2021/04/05 07:51:44;;;;;;;3.70;2.50;;;;;;;;;;5012604;28;20781;-68
2021/04/05 07:54:10;;;;;;;4.80;2.83;;;;;;;;;;5013325;28;20458;-68
2021/04/05 07:56:51;;;;;;;4.70;2.60;;;;;;;;;;5012433;28;20953;-68
2021/04/05 07:59:21;;;;;;;4.03;2.50;;;;;;;;;;5013448;28;20414;-68
2021/04/05 08:01:47;;;;;;;4.53;2.43;;;;;;;;;;5012536;28;20462;-68
2021/04/05 08:04:22;;;;;;;6.10;3.10;;;;;;;;;;5013065;28;20469;-68
2021/04/05 08:06:47;;;;;;;4.33;2.83;;;;;;;;;;5011232;28;20430;-68
2021/04/05 08:09:15;;;;;;;4.40;2.13;;;;;;;;;;5012981;28;20413;-68
2021/04/05 08:12:06;;;;;;;3.67;2.60;;;;;;;;;;5011985;28;20455;-68
2021/04/05 08:14:50;;;;;;;3.20;2.60;;;;;;;;;;5012943;28;20441;-68
2021/04/05 08:17:34;;;;;;;9.10;2.50;;;;;;;;;;5012505;28;20429;-68
2021/04/05 08:20:03;;;;;;;4.80;2.33;;;;;;;;;;5012949;28;20405;-68
2021/04/05 08:22:29;;;;;;;7.70;2.73;;;;;;;;;;5012050;28;20462;-68
2021/04/05 08:25:20;;;;;;;7.07;2.83;;;;;;;;;;5013015;28;20437;-68
2021/04/05 08:27:50;;;;;;;6.00;2.47;;;;;;;;;;5012403;28;20480;-68
2021/04/05 08:30:24;;;;;;;3.77;2.77;;;;;;;;;;5012898;28;20486;-68
2021/04/05 08:33:02;;;;;;;9.27;2.97;;;;;;;;;;5013218;28;20467;-68
2021/04/05 08:35:45;;;;;;;5.73;2.90;;;;;;;;;;5013443;28;20768;-69
2021/04/05 08:38:23;;;;;;;6.63;3.17;;;;;;;;;;5011947;28;20429;-68
2021/04/05 08:40:51;;;;;;;5.23;2.50;;;;;;;;;;5011393;28;20448;-68
2021/04/05 08:43:17;;;;;;;3.90;2.20;;;;;;;;;;5012835;28;20453;-68
2021/04/05 08:45:43;;;;;;;2.50;1.77;;;;;;;;;;5012919;28;20457;-68
2021/04/05 08:48:16;;;;;;;4.67;2.50;;;;;;;;;;5012337;28;20425;-68
2021/04/05 08:50:43;;;;;;;5.30;2.40;;;;;;;;;;5013588;28;20384;-68
2021/04/05 08:53:10;;;;;;;6.30;2.60;;;;;;;;;;5010503;28;20427;-69
2021/04/05 08:55:38;;;;;;;7.97;3.07;;;;;;;;;;5012507;28;20517;-68
2021/04/05 08:58:09;;;;;;;5.10;2.53;;;;;;;;;;5011662;28;20458;-68
2021/04/05 09:00:37;;;;;;;5.60;2.53;;;;;;;;;;5012503;28;20403;-68
2021/04/05 09:03:10;;;;;;;4.70;2.43;;;;;;;;;;5010660;28;20466;-68
2021/04/05 09:05:42;;;;;;;5.40;2.63;;;;;;;;;;5015421;28;20410;-68
2021/04/05 09:08:10;;;;;;;6.83;2.07;;;;;;;;;;5015623;28;20829;-68
2021/04/05 09:10:52;;;;;;;5.23;2.67;;;;;;;;;;5016286;28;20427;-68
2021/04/05 09:13:21;;;;;;;4.63;2.50;;;;;;;;;;5013289;28;20477;-68
2021/04/05 09:16:05;;;;;;;7.03;2.10;;;;;;;;;;5016344;28;20454;-68
2021/04/05 09:18:40;;;;;;;6.27;2.13;;;;;;;;;;5016397;28;20406;-69
2021/04/05 09:21:19;;;;;;;4.40;2.10;;;;;;;;;;5015995;28;20445;-68
2021/04/05 09:23:45;;;;;;;8.93;2.67;;;;;;;;;;4996797;28;20478;-70
2021/04/05 09:26:26;;;;;;;5.47;2.10;;;;;;;;;;4996380;28;20498;-68
2021/04/05 09:29:04;;;;;;;4.13;2.23;;;;;;;;;;4996770;28;20426;-68
2021/04/05 09:31:55;;;;;;;3.97;2.10;;;;;;;;;;4997912;28;20462;-68
2021/04/05 09:34:34;;;;;;;4.63;2.10;;;;;;;;;;5015873;28;20428;-68
2021/04/05 09:37:03;;;;;;;4.50;2.20;;;;;;;;;;5015068;28;20462;-68
2021/04/05 09:39:49;;;;;;;8.87;2.27;;;;;;;;;;5014444;28;20400;-69
2021/04/05 09:42:34;;;;;;;5.43;2.30;;;;;;;;;;5014700;28;20472;-68
2021/04/05 09:45:09;;;;;;;7.50;2.20;;;;;;;;;;5015492;28;20480;-69
2021/04/05 09:47:44;;;;;;;4.97;1.80;;;;;;;;;;5014486;28;20426;-68
2021/04/05 09:50:19;;;;;;;10.90;2.53;;;;;;;;;;5015654;28;20392;-68
2021/04/05 09:53:04;;;;;;;4.60;2.37;;;;;;;;;;5014649;28;20436;-68
2021/04/05 09:55:32;;;;;;;6.73;2.10;;;;;;;;;;5016004;28;20384;-68
2021/04/05 09:57:58;;;;;;;6.73;2.60;;;;;;;;;;5014394;28;20415;-69
2021/04/05 10:00:24;;;;;;;4.10;2.07;;;;;;;;;;5015263;28;20475;-68
2021/04/05 10:02:53;;;;;;;6.27;2.10;;;;;;;;;;5013501;28;21034;-68
2021/04/05 10:05:19;;;;;;;11.40;1.73;;;;;;;;;;5015220;28;20422;-68
2021/04/05 10:07:46;;;;;;;8.03;1.70;;;;;;;;;;5012978;28;20462;-67
2021/04/05 10:10:14;;;;;;;3.77;2.00;;;;;;;;;;5015167;28;20410;-68
2021/04/05 10:12:41;;;;;;;11.03;2.13;;;;;;;;;;5014120;28;20430;-68
2021/04/05 10:15:07;;;;;;;6.40;1.90;;;;;;;;;;5014735;28;20439;-68
2021/04/05 10:17:35;;;;;;;3.40;2.03;;;;;;;;;;5013923;28;20461;-69
2021/04/05 10:20:05;;;;;;;3.70;1.50;;;;;;;;;;5015187;28;20489;-68
2021/04/05 10:22:38;;;;;;;4.33;1.80;;;;;;;;;;5012351;28;20463;-68
2021/04/05 10:25:05;;;;;;;4.37;1.67;;;;;;;;;;5012861;28;20966;-69
2021/04/05 10:27:32;;;;;;;4.57;2.00;;;;;;;;;;5013912;28;20431;-68
2021/04/05 10:29:58;;;;;;;3.50;2.20;;;;;;;;;;5014837;28;20422;-68
2021/04/05 10:32:25;;;;;;;3.60;1.70;;;;;;;;;;5013590;28;20522;-68
2021/04/05 10:34:58;;;;;;;5.43;2.33;;;;;;;;;;5013313;28;20475;-68
2021/04/05 10:37:34;;;;;;;4.10;1.97;;;;;;;;;;5013927;28;20935;-69
2021/04/05 10:40:01;;;;;;;3.63;2.40;;;;;;;;;;5014807;28;20421;-68
2021/04/05 10:42:37;;;;;;;3.50;1.97;;;;;;;;;;5015055;28;20556;-68
2021/04/05 10:45:09;;;;;;;7.03;2.37;;;;;;;;;;5015317;28;20419;-68
2021/04/05 10:47:55;;;;;;;2.40;1.50;;;;;;;;;;5014034;28;20434;-69
2021/04/05 10:50:26;;;;;;;3.17;1.80;;;;;;;;;;5014419;28;20414;-68
2021/04/05 10:52:53;;;;;;;5.43;2.40;;;;;;;;;;5013689;28;20459;-68
2021/04/05 10:55:21;;;;;;;5.90;2.50;;;;;;;;;;5071115;23;20498;-71
2021/04/05 10:57:51;;;;;;;6.53;2.20;;;;;;;;;;5033857;28;20454;-71
2021/04/05 11:00:19;;;;;;;4.93;1.93;;;;;;;;;;5034693;28;20378;-71
2021/04/05 11:02:56;;;;;;;3.47;1.70;;;;;;;;;;5032662;28;20515;-71
2021/04/05 11:05:24;;;;;;;6.90;2.00;;;;;;;;;;5020913;28;20979;-71
2021/04/05 11:08:08;;;;;;;8.60;2.33;;;;;;;;;;5014671;28;20423;-71
2021/04/05 11:10:36;;;;;;;4.87;2.50;;;;;;;;;;5014925;28;20381;-71
2021/04/05 11:13:04;;;;;;;6.40;2.47;;;;;;;;;;5014650;28;20438;-70
2021/04/05 11:15:31;;;;;;;7.03;2.90;;;;;;;;;;5014491;28;20935;-71
2021/04/05 11:17:58;;;;;;;7.07;2.33;;;;;;;;;;5031551;28;20492;-70
2021/04/05 11:20:29;;;;;;;4.00;2.10;;;;;;;;;;5054266;28;20401;-71
2021/04/05 11:23:02;;;;;;;4.80;1.73;;;;;;;;;;5052453;28;20454;-71
2021/04/05 11:25:33;;;;;;;5.00;2.30;;;;;;;;;;5053893;28;20781;-71
2021/04/05 11:28:30;;;;;;;8.03;1.80;;;;;;;;;;5035205;28;20422;-71
2021/04/05 11:30:58;;;;;;;4.93;2.10;;;;;;;;;;4998461;28;20498;-71
2021/04/05 11:33:27;;;;;;;8.57;2.30;;;;;;;;;;5037507;28;20426;-71
2021/04/05 11:35:54;;;;;;;3.40;2.10;;;;;;;;;;5054387;28;20823;-71
2021/04/05 11:38:21;;;;;;;6.67;2.43;;;;;;;;;;5051917;28;20426;-71
2021/04/05 11:40:47;;;;;;;3.30;2.30;;;;;;;;;;5054327;28;20440;-71
2021/04/05 11:43:20;;;;;;;4.37;2.20;;;;;;;;;;5052427;28;20460;-71
2021/04/05 11:45:53;;;;;;;5.40;2.50;;;;;;;;;;5054561;28;20504;-71
2021/04/05 11:48:20;;;;;;;4.10;2.23;;;;;;;;;;5031839;28;20419;-71
2021/04/05 11:50:47;;;;;;;9.83;2.13;;;;;;;;;;5014013;28;20402;-71
2021/04/05 11:53:31;;;;;;;3.07;1.90;;;;;;;;;;5032214;28;20424;-71
2021/04/05 11:56:12;;;;;;;5.90;2.50;;;;;;;;;;5053459;28;20378;-71
2021/04/05 11:58:40;;;;;;;9.00;1.93;;;;;;;;;;5051690;28;20508;-71
2021/04/05 12:01:10;;;;;;;3.10;1.50;;;;;;;;;;5038202;28;20435;-71
2021/04/05 12:03:47;;;;;;;5.33;1.70;;;;;;;;;;5037957;28;20953;-70
2021/04/05 12:06:18;;;;;;;5.17;1.80;;;;;;;;;;5052134;28;20408;-71
2021/04/05 12:08:44;;;;;;;6.50;1.80;;;;;;;;;;5051085;28;20427;-70
2021/04/05 12:11:11;;;;;;;7.33;2.27;;;;;;;;;;5053567;28;20421;-71
2021/04/05 12:13:39;;;;;;;7.03;2.13;;;;;;;;;;5028003;28;20447;-71
2021/04/05 12:16:06;;;;;;;4.90;2.37;;;;;;;;;;5013626;28;20411;-71
2021/04/05 12:18:33;;;;;;;7.07;1.80;;;;;;;;;;5035016;28;20455;-71
2021/04/05 12:21:05;;;;;;;6.40;2.10;;;;;;;;;;5053138;28;20423;-71
2021/04/05 12:23:31;;;;;;;6.70;2.40;;;;;;;;;;5051111;28;20461;-71
2021/04/05 12:25:57;;;;;;;2.40;1.47;;;;;;;;;;5053058;28;20398;-71
2021/04/05 12:28:31;;;;;;;4.40;2.10;;;;;;;;;;5051362;28;20426;-71
2021/04/05 12:30:58;;;;;;;20.27;2.30;;;;;;;;;;5053956;28;20429;-71
2021/04/05 12:33:25;;;;;;;4.40;1.57;;;;;;;;;;5051316;28;20780;-71
2021/04/05 12:35:57;;;;;;;7.97;1.97;;;;;;;;;;5049414;28;20791;-72
2021/04/05 12:38:27;;;;;;;6.07;2.10;;;;;;;;;;5052110;28;20417;-71
2021/04/05 12:40:53;;;;;;;6.30;2.03;;;;;;;;;;5056901;28;20413;-71
2021/04/05 12:43:23;;;;;;;8.00;2.70;;;;;;;;;;5055284;28;20430;-71
2021/04/05 12:45:52;;;;;;;3.70;1.83;;;;;;;;;;5055758;28;20417;-71
2021/04/05 12:48:22;;;;;;;6.60;1.57;;;;;;;;;;5055250;28;20936;-71
2021/04/05 12:50:48;;;;;;;5.93;2.80;;;;;;;;;;5057046;28;20415;-71
2021/04/05 12:53:15;;;;;;;5.30;1.80;;;;;;;;;;5048045;28;20473;-71
2021/04/05 12:55:41;;;;;;;2.10;1.47;;;;;;;;;;5037545;28;20446;-72
2021/04/05 12:58:08;;;;;;;3.50;1.70;;;;;;;;;;5041653;28;20427;-72
2021/04/05 13:00:39;;;;;;;6.63;2.50;;;;;;;;;;5055643;28;20784;-71
2021/04/05 13:03:12;;;;;;;5.87;2.20;;;;;;;;;;5044671;28;20449;-71
2021/04/05 13:05:45;;;;;;;3.27;1.50;;;;;;;;;;5017408;28;20418;-70
2021/04/05 13:08:22;;;;;;;6.60;1.30;;;;;;;;;;5017082;28;20426;-71
2021/04/05 13:10:51;;;;;;;4.10;1.80;;;;;;;;;;5016962;28;20407;-71
2021/04/05 13:13:20;;;;;;;4.00;1.67;;;;;;;;;;5016660;28;20430;-71
2021/04/05 13:15:46;;;;;;;3.47;1.70;;;;;;;;;;5017098;28;20440;-71
2021/04/05 13:18:16;;;;;;;2.63;1.33;;;;;;;;;;5016984;28;20783;-71
2021/04/05 13:20:44;;;;;;;5.50;1.70;;;;;;;;;;5031936;28;20451;-71
2021/04/05 13:23:11;;;;;;;6.70;1.53;;;;;;;;;;5026271;28;20464;-70
2021/04/05 13:25:39;;;;;;;2.37;1.50;;;;;;;;;;5056392;28;20905;-71
2021/04/05 13:28:06;;;;;;;3.53;1.60;;;;;;;;;;5054403;28;20420;-70
2021/04/05 13:30:33;;;;;;;4.10;1.80;;;;;;;;;;5056518;28;20745;-71
2021/04/05 13:33:01;;;;;;;4.17;1.53;;;;;;;;;;5054347;28;20428;-70
2021/04/05 13:35:28;;;;;;;6.40;1.70;;;;;;;;;;5056350;28;20792;-71
2021/04/05 13:37:55;;;;;;;6.57;1.87;;;;;;;;;;5048512;28;20436;-70
2021/04/05 13:40:25;;;;;;;11.77;2.03;;;;;;;;;;5016310;28;20411;-71
2021/04/05 13:42:53;;;;;;;5.23;1.60;;;;;;;;;;5044232;28;20455;-70
2021/04/05 13:45:20;;;;;;;4.00;2.20;;;;;;;;;;5055781;28;20437;-71
2021/04/05 13:47:49;;;;;;;4.00;2.10;;;;;;;;;;5053024;28;20436;-70
2021/04/05 13:50:17;;;;;;;4.00;2.17;;;;;;;;;;5015661;28;20413;-71
2021/04/05 13:52:47;;;;;;;4.17;2.23;;;;;;;;;;5016352;28;20416;-70
2021/04/05 13:55:17;;;;;;;4.60;1.97;;;;;;;;;;5016044;28;20890;-71
2021/04/05 13:57:48;;;;;;;3.63;1.77;;;;;;;;;;5015799;28;20499;-70
2021/04/05 14:00:31;;;;;;;5.23;2.20;;;;;;;;;;5016047;28;20430;-71
2021/04/05 14:03:00;;;;;;;2.57;1.87;;;;;;;;;;5017268;28;20477;-70
2021/04/05 14:05:31;;;;;;;6.87;2.57;;;;;;;;;;5035897;28;20425;-71
2021/04/05 14:07:59;;;;;;;3.07;2.00;;;;;;;;;;5035878;28;20395;-70
2021/04/05 14:10:25;;;;;;;5.10;2.80;;;;;;;;;;5055405;28;20398;-71
2021/04/05 14:12:53;;;;;;;4.80;2.30;;;;;;;;;;5052635;28;20551;-70
2021/04/05 14:15:24;;;;;;;11.20;2.30;;;;;;;;;;5022729;28;20863;-70
2021/04/05 14:17:52;;;;;;;6.60;2.53;;;;;;;;;;5015875;28;20867;-71
2021/04/05 14:20:30;;;;;;;6.13;2.50;;;;;;;;;;5015810;28;20407;-71
2021/04/05 14:23:07;;;;;;;5.73;2.50;;;;;;;;;;5015279;28;20970;-71
2021/04/05 14:25:35;;;;;;;3.60;2.37;;;;;;;;;;5033616;28;20901;-71
2021/04/05 14:28:05;;;;;;;6.67;2.20;;;;;;;;;;5035432;28;20816;-70
2021/04/05 14:30:38;;;;;;;8.07;2.33;;;;;;;;;;5055059;28;20455;-70
2021/04/05 14:33:06;;;;;;;5.87;2.07;;;;;;;;;;5053473;28;20394;-71
2021/04/05 14:35:38;;;;;;;3.53;2.00;;;;;;;;;;5053761;28;20448;-71
2021/04/05 14:38:07;;;;;;;7.27;2.50;;;;;;;;;;5053358;28;20435;-71
2021/04/05 14:40:44;;;;;;;8.03;2.23;;;;;;;;;;5055252;28;20901;-70
2021/04/05 14:43:22;;;;;;;5.83;2.30;;;;;;;;;;5052987;28;20429;-70
2021/04/05 14:45:49;;;;;;;9.13;2.30;;;;;;;;;;5038490;28;20443;-70
2021/04/05 14:48:21;;;;;;;3.70;2.37;;;;;;;;;;5036011;28;20442;-71
2021/04/05 14:50:52;;;;;;;10.10;2.80;;;;;;;;;;5054837;28;20481;-70
2021/04/05 14:53:25;;;;;;;6.57;2.43;;;;;;;;;;5052681;28;20433;-71
2021/04/05 14:55:52;;;;;;;6.70;2.23;;;;;;;;;;5054892;28;20412;-71
2021/04/05 14:58:20;;;;;;;4.50;2.33;;;;;;;;;;5052668;28;20434;-70
2021/04/05 15:00:50;;;;;;;4.30;2.43;;;;;;;;;;5053799;28;20493;-71
2021/04/05 15:03:16;;;;;;;8.33;2.60;;;;;;;;;;5038489;28;20505;-70